createdAt,value
2023-01-23T00:01:32.155Z,102047.94
2023-01-23T00:04:00.828Z,102047.78
2023-01-23T00:06:28.735Z,102054.91
2023-01-23T00:08:56.939Z,102053.72
2023-01-23T00:11:30.336Z,102060.53
2023-01-23T00:13:58.948Z,102062.28
2023-01-23T00:16:29.303Z,102057.06
2023-01-23T00:18:57.302Z,102062.97
2023-01-23T00:21:27.781Z,102061.00
2023-01-23T00:23:58.300Z,102065.91
2023-01-23T00:26:28.616Z,102074.97
2023-01-23T00:28:56.816Z,102076.28
2023-01-23T00:31:30.775Z,102078.81
2023-01-23T00:34:11.340Z,102083.56
2023-01-23T00:36:41.198Z,102081.75
2023-01-23T00:39:21.448Z,102076.22
2023-01-23T00:41:50.007Z,102071.56
2023-01-23T00:44:17.986Z,102064.44
2023-01-23T00:46:45.860Z,102069.72
2023-01-23T00:49:13.426Z,102056.47
2023-01-23T00:51:40.783Z,102062.75
2023-01-23T00:54:07.894Z,102065.56
2023-01-23T00:56:35.140Z,102067.44
2023-01-23T00:59:02.259Z,102064.03
2023-01-23T01:01:31.646Z,102067.91
2023-01-23T01:03:59.978Z,102078.50
2023-01-23T01:06:27.572Z,102078.94
2023-01-23T01:08:54.636Z,102079.31
2023-01-23T01:11:21.830Z,102078.81
2023-01-23T01:13:49.007Z,102076.69
2023-01-23T01:16:16.361Z,102080.38
2023-01-23T01:18:43.792Z,102078.94
2023-01-23T01:21:14.199Z,102085.78
2023-01-23T01:23:41.739Z,102086.53
2023-01-23T01:26:09.556Z,102087.00
2023-01-23T01:28:39.498Z,102089.50
2023-01-23T01:31:14.869Z,102099.78
2023-01-23T01:33:43.923Z,102090.69
2023-01-23T01:36:16.854Z,102099.28
2023-01-23T01:38:44.604Z,102099.91
2023-01-23T01:41:12.676Z,102106.72
2023-01-23T01:43:39.945Z,102106.66
2023-01-23T01:46:09.953Z,102112.97
2023-01-23T01:48:46.472Z,102110.16
2023-01-23T01:51:28.526Z,102114.84
2023-01-23T01:54:49.204Z,102107.97
2023-01-23T01:57:42.513Z,102109.03
2023-01-23T02:00:19.566Z,102113.69
2023-01-23T02:03:04.108Z,102112.50
2023-01-23T02:05:43.056Z,102122.63
2023-01-23T02:08:58.691Z,102126.09
2023-01-23T02:11:25.829Z,102128.75
2023-01-23T02:13:55.403Z,102126.09
2023-01-23T02:16:31.429Z,102123.50
2023-01-23T02:19:04.399Z,102127.50
2023-01-23T02:21:32.290Z,102132.41
2023-01-23T02:24:26.262Z,102135.19
2023-01-23T02:26:53.261Z,102134.03
2023-01-23T02:29:20.616Z,102137.06
2023-01-23T02:31:49.789Z,102132.28
2023-01-23T02:34:17.241Z,102127.31
2023-01-23T02:36:48.114Z,102124.44
2023-01-23T02:39:19.104Z,102123.16
2023-01-23T02:41:50.070Z,102124.13
2023-01-23T02:44:26.724Z,102130.44
2023-01-23T02:46:59.569Z,102137.94
2023-01-23T02:49:27.192Z,102127.88
2023-01-23T02:51:55.316Z,102129.34
2023-01-23T02:54:24.258Z,102136.50
2023-01-23T02:56:51.691Z,102141.09
2023-01-23T02:59:37.207Z,102144.22
2023-01-23T03:02:05.533Z,102139.09
2023-01-23T03:04:32.677Z,102144.41
2023-01-23T03:07:00.347Z,102136.03
2023-01-23T03:09:27.783Z,102146.63
2023-01-23T03:11:55.028Z,102136.00
2023-01-23T03:14:24.226Z,102136.78
2023-01-23T03:16:53.744Z,102139.69
2023-01-23T03:19:24.562Z,102146.19
2023-01-23T03:21:52.718Z,102151.78
2023-01-23T03:24:21.063Z,102151.97
2023-01-23T03:26:50.666Z,102145.44
2023-01-23T03:29:41.245Z,102156.56
2023-01-23T03:32:09.034Z,102155.94
2023-01-23T03:34:36.268Z,102154.03
2023-01-23T03:37:04.392Z,102149.06
2023-01-23T03:39:50.408Z,102151.22
2023-01-23T03:42:17.439Z,102159.66
2023-01-23T03:44:44.619Z,102155.53
2023-01-23T03:47:11.714Z,102152.31
2023-01-23T03:49:38.818Z,102165.19
2023-01-23T03:52:06.318Z,102171.81
2023-01-23T03:54:33.619Z,102171.44
2023-01-23T03:57:00.646Z,102169.66
2023-01-23T03:59:27.722Z,102175.44
2023-01-23T04:01:54.976Z,102178.31
2023-01-23T04:04:21.988Z,102176.97
2023-01-23T04:06:49.015Z,102177.72
2023-01-23T04:09:16.048Z,102176.22
2023-01-23T04:11:43.059Z,102178.94
2023-01-23T04:14:10.108Z,102177.41
2023-01-23T04:16:37.149Z,102187.66
2023-01-23T04:19:04.307Z,102181.81
2023-01-23T04:21:31.391Z,102177.22
2023-01-23T04:23:58.434Z,102181.94
2023-01-23T04:26:25.444Z,102181.16
2023-01-23T04:28:52.439Z,102184.97
2023-01-23T04:31:19.537Z,102188.03
2023-01-23T04:33:46.585Z,102181.09
2023-01-23T04:36:14.157Z,102194.22
2023-01-23T04:38:41.174Z,102201.19
2023-01-23T04:41:09.729Z,102197.06
2023-01-23T04:43:36.772Z,102197.25
2023-01-23T04:46:03.887Z,102193.31
2023-01-23T04:48:30.926Z,102190.41
2023-01-23T04:50:57.967Z,102193.44
2023-01-23T04:53:25.142Z,102205.38
2023-01-23T04:55:52.137Z,102205.19
2023-01-23T04:58:19.824Z,102203.41
2023-01-23T05:00:47.429Z,102196.47
2023-01-23T05:03:15.759Z,102201.63
2023-01-23T05:05:44.324Z,102206.28
2023-01-23T05:08:12.290Z,102215.25
2023-01-23T05:10:39.684Z,102206.97
2023-01-23T05:13:06.763Z,102213.84
2023-01-23T05:15:33.903Z,102217.22
2023-01-23T05:18:01.026Z,102211.22
2023-01-23T05:20:28.052Z,102210.28
2023-01-23T05:22:56.499Z,102213.94
2023-01-23T05:25:28.495Z,102212.69
2023-01-23T05:27:56.260Z,102219.88
2023-01-23T05:30:23.923Z,102224.97
2023-01-23T05:32:51.324Z,102216.22
2023-01-23T05:35:19.004Z,102210.66
2023-01-23T05:37:53.286Z,102219.75
2023-01-23T05:40:21.373Z,102230.31
2023-01-23T05:42:49.437Z,102227.47
2023-01-23T05:45:17.770Z,102236.63
2023-01-23T05:47:45.079Z,102228.28
2023-01-23T05:50:20.112Z,102243.28
2023-01-23T05:52:47.367Z,102241.63
2023-01-23T05:55:14.576Z,102238.84
2023-01-23T05:57:41.708Z,102242.06
2023-01-23T06:00:11.564Z,102255.53
2023-01-23T06:02:38.684Z,102255.69
2023-01-23T06:05:06.449Z,102254.84
2023-01-23T06:07:33.496Z,102253.19
2023-01-23T06:10:00.788Z,102267.78
2023-01-23T06:12:27.808Z,102268.16
2023-01-23T06:14:54.889Z,102271.09
2023-01-23T06:17:21.970Z,102273.44
2023-01-23T06:19:49.569Z,102271.41
2023-01-23T06:22:16.836Z,102278.16
2023-01-23T06:24:43.850Z,102285.59
2023-01-23T06:27:11.355Z,102288.06
2023-01-23T06:29:38.493Z,102288.47
2023-01-23T06:32:08.110Z,102301.50
2023-01-23T06:34:38.183Z,102304.69
2023-01-23T06:37:05.324Z,102304.72
2023-01-23T06:39:34.218Z,102311.13
2023-01-23T06:42:01.542Z,102322.50
2023-01-23T06:44:28.739Z,102319.38
2023-01-23T06:46:55.806Z,102327.03
2023-01-23T06:49:22.840Z,102340.00
2023-01-23T06:51:49.856Z,102335.91
2023-01-23T06:54:17.027Z,102342.47
2023-01-23T06:56:44.030Z,102335.28
2023-01-23T06:59:11.048Z,102337.25
2023-01-23T07:01:38.119Z,102338.00
2023-01-23T07:04:05.161Z,102338.59
2023-01-23T07:06:32.236Z,102344.28
2023-01-23T07:08:59.303Z,102335.78
2023-01-23T07:11:26.819Z,102341.28
2023-01-23T07:13:54.338Z,102346.22
2023-01-23T07:16:21.464Z,102346.69
2023-01-23T07:18:48.492Z,102352.34
2023-01-23T07:21:15.836Z,102355.22
2023-01-23T07:23:42.821Z,102350.31
2023-01-23T07:26:11.633Z,102350.16
2023-01-23T07:28:39.361Z,102349.53
2023-01-23T07:31:07.079Z,102358.44
2023-01-23T07:33:34.275Z,102356.41
2023-01-23T07:36:01.281Z,102352.00
2023-01-23T07:38:28.286Z,102362.72
2023-01-23T07:40:59.392Z,102357.03
2023-01-23T07:43:27.476Z,102359.41
2023-01-23T07:45:54.517Z,102361.13
2023-01-23T07:48:21.621Z,102353.94
2023-01-23T07:50:48.617Z,102356.50
2023-01-23T07:53:15.627Z,102357.13
2023-01-23T07:55:42.729Z,102362.47
2023-01-23T07:58:09.837Z,102354.72
2023-01-23T08:00:36.991Z,102365.78
2023-01-23T08:03:04.093Z,102363.91
2023-01-23T08:05:31.151Z,102376.03
2023-01-23T08:08:12.237Z,102370.34
2023-01-23T08:10:40.910Z,102379.25
2023-01-23T08:13:08.236Z,102380.56
2023-01-23T08:15:36.685Z,102375.88
2023-01-23T08:18:03.887Z,102375.13
2023-01-23T08:20:30.889Z,102381.81
2023-01-23T08:22:59.088Z,102381.94
2023-01-23T08:25:26.148Z,102379.84
2023-01-23T08:27:53.171Z,102382.94
2023-01-23T08:30:20.550Z,102391.34
2023-01-23T08:32:47.778Z,102393.88
2023-01-23T08:35:15.195Z,102392.97
2023-01-23T08:37:42.363Z,102398.63
2023-01-23T08:40:10.672Z,102396.78
2023-01-23T08:42:37.654Z,102406.91
2023-01-23T08:45:05.285Z,102408.38
2023-01-23T08:47:36.706Z,102412.44
2023-01-23T08:50:05.840Z,102412.75
2023-01-23T08:52:34.783Z,102417.91
2023-01-23T08:55:01.986Z,102425.41
2023-01-23T08:57:29.316Z,102426.53
2023-01-23T08:59:56.403Z,102426.13
2023-01-23T09:02:23.903Z,102435.94
2023-01-23T09:04:51.142Z,102428.34
2023-01-23T09:07:18.217Z,102421.38
2023-01-23T09:09:45.296Z,102418.66
2023-01-23T09:12:14.494Z,102416.38
2023-01-23T09:14:41.596Z,102406.34
2023-01-23T09:17:08.650Z,102410.91
2023-01-23T09:19:35.815Z,102418.63
2023-01-23T09:22:03.725Z,102413.63
2023-01-23T09:24:30.768Z,102411.59
2023-01-23T09:26:58.268Z,102406.69
2023-01-23T09:29:25.225Z,102410.78
2023-01-23T09:31:52.290Z,102405.88
2023-01-23T09:34:19.371Z,102407.94
2023-01-23T09:36:46.435Z,102400.88
2023-01-23T09:39:13.479Z,102404.19
2023-01-23T09:41:41.600Z,102408.03
2023-01-23T09:44:34.740Z,102401.69
2023-01-23T09:47:20.707Z,102394.16
2023-01-23T09:50:14.554Z,102398.06
2023-01-23T09:52:49.726Z,102400.03
2023-01-23T09:55:40.581Z,102391.88
2023-01-23T09:58:19.696Z,102390.59
2023-01-23T10:00:47.460Z,102385.28
2023-01-23T10:03:16.491Z,102398.34
2023-01-23T10:06:14.345Z,102396.38
2023-01-23T10:09:04.881Z,102405.19
2023-01-23T10:12:43.104Z,102406.19
2023-01-23T10:15:56.151Z,102398.13
2023-01-23T10:18:38.934Z,102397.84
2023-01-23T10:22:01.749Z,102405.47
2023-01-23T10:24:54.016Z,102400.06
2023-01-23T10:27:31.276Z,102396.25
2023-01-23T10:30:04.606Z,102400.09
2023-01-23T10:32:45.416Z,102400.97
2023-01-23T10:35:40.682Z,102396.75
2023-01-23T10:38:46.535Z,102399.78
2023-01-23T10:41:21.158Z,102401.38
2023-01-23T10:43:53.545Z,102394.41
2023-01-23T10:46:38.682Z,102403.78
2023-01-23T10:49:06.265Z,102398.47
2023-01-23T10:51:38.740Z,102392.22
2023-01-23T10:54:13.054Z,102388.22
2023-01-23T10:56:55.738Z,102383.00
2023-01-23T10:59:53.123Z,102384.41
2023-01-23T11:02:29.162Z,102396.50
2023-01-23T11:04:56.478Z,102387.25
2023-01-23T11:07:32.127Z,102394.81
2023-01-23T11:10:04.989Z,102395.25
2023-01-23T11:12:46.454Z,102391.41
2023-01-23T11:15:32.267Z,102392.00
2023-01-23T11:18:01.457Z,102393.13
2023-01-23T11:20:39.321Z,102394.53
2023-01-23T11:23:10.852Z,102396.88
2023-01-23T11:25:44.668Z,102386.84
2023-01-23T11:28:30.797Z,102390.66
2023-01-23T11:31:15.967Z,102385.91
2023-01-23T11:34:09.998Z,102390.78
2023-01-23T11:36:59.799Z,102374.81
2023-01-23T11:39:42.742Z,102387.06
2023-01-23T11:42:14.863Z,102376.66
2023-01-23T11:44:46.492Z,102367.13
2023-01-23T11:47:34.597Z,102363.88
2023-01-23T11:50:19.612Z,102359.41
2023-01-23T11:53:22.464Z,102358.22
2023-01-23T11:56:36.589Z,102359.00
2023-01-23T11:59:27.382Z,102360.38
2023-01-23T12:02:09.414Z,102364.59
2023-01-23T12:05:05.858Z,102359.25
2023-01-23T12:08:14.402Z,102360.03
2023-01-23T12:10:50.213Z,102356.75
2023-01-23T12:13:25.609Z,102365.84
2023-01-23T12:16:24.409Z,102368.75
2023-01-23T12:19:06.629Z,102378.06
2023-01-23T12:22:17.969Z,102379.69
2023-01-23T12:25:15.911Z,102386.00
2023-01-23T12:27:57.854Z,102384.34
2023-01-23T12:31:18.511Z,102389.16
2023-01-23T12:34:07.151Z,102384.03
2023-01-23T12:37:12.361Z,102384.50
2023-01-23T12:40:23.415Z,102379.03
2023-01-23T12:43:04.816Z,102379.84
2023-01-23T12:45:33.845Z,102383.66
2023-01-23T12:48:20.509Z,102375.06
2023-01-23T12:50:56.436Z,102374.66
2023-01-23T12:53:24.105Z,102374.53
2023-01-23T12:56:31.005Z,102390.44
2023-01-23T12:59:30.353Z,102385.44
2023-01-23T13:02:20.356Z,102391.88
2023-01-23T13:05:32.892Z,102399.06
2023-01-23T13:08:11.054Z,102399.78
2023-01-23T13:11:36.442Z,102408.31
2023-01-23T13:14:15.027Z,102410.31
2023-01-23T13:16:48.569Z,102408.41
2023-01-23T13:19:49.110Z,102421.31
2023-01-23T13:22:28.656Z,102416.25
2023-01-23T13:25:13.037Z,102413.34
2023-01-23T13:27:58.593Z,102423.81
2023-01-23T13:30:36.354Z,102422.13
2023-01-23T13:33:15.204Z,102424.72
2023-01-23T13:35:44.920Z,102407.81
2023-01-23T13:38:29.713Z,102424.44
2023-01-23T13:41:05.107Z,102420.75
2023-01-23T13:43:54.189Z,102416.09
2023-01-23T14:21:56.304Z,102431.13
2023-01-23T14:24:46.125Z,102438.41
2023-01-23T14:27:51.448Z,102441.81
2023-01-23T14:30:27.076Z,102438.41
2023-01-23T14:32:55.197Z,102446.25
2023-01-23T14:35:32.839Z,102445.72
2023-01-23T14:38:05.190Z,102445.84
2023-01-23T14:40:46.609Z,102442.22
2023-01-23T14:43:27.724Z,102443.97
2023-01-23T14:46:22.301Z,102442.97
2023-01-23T14:48:55.838Z,102440.84
2023-01-23T14:51:26.846Z,102454.34
2023-01-23T14:54:10.448Z,102453.66
2023-01-23T14:56:39.939Z,102450.59
2023-01-23T14:59:22.209Z,102446.34
2023-01-23T15:02:05.379Z,102452.00
2023-01-23T15:04:37.553Z,102457.78
2023-01-23T15:07:04.737Z,102448.56
2023-01-23T15:09:43.033Z,102452.56
2023-01-23T15:12:17.876Z,102444.56
2023-01-23T15:14:45.558Z,102447.03
2023-01-23T15:17:20.642Z,102450.16
2023-01-23T15:19:56.593Z,102453.91
2023-01-23T15:22:32.693Z,102456.91
2023-01-23T15:25:29.878Z,102456.16
2023-01-23T15:27:57.322Z,102450.84
2023-01-23T15:30:45.375Z,102460.69
2023-01-23T15:33:31.917Z,102456.78
2023-01-23T15:36:28.758Z,102451.84
2023-01-23T15:38:59.298Z,102453.44
2023-01-23T15:41:58.712Z,102457.13
2023-01-23T15:44:29.349Z,102454.09
2023-01-23T15:47:01.167Z,102452.09
2023-01-23T15:49:29.805Z,102462.94
2023-01-23T15:52:16.272Z,102460.19
2023-01-23T15:54:43.483Z,102460.31
2023-01-23T15:57:14.404Z,102459.06
2023-01-23T15:59:41.883Z,102463.25
2023-01-23T16:02:30.643Z,102462.88
2023-01-23T16:04:59.199Z,102468.16
2023-01-23T16:07:37.564Z,102467.53
2023-01-23T16:10:33.696Z,102465.84
2023-01-23T16:13:00.792Z,102468.59
2023-01-23T16:15:34.377Z,102465.59
2023-01-23T16:18:06.205Z,102469.25
2023-01-23T16:20:41.343Z,102463.63
2023-01-23T16:23:27.899Z,102461.34
2023-01-23T16:25:56.716Z,102464.09
2023-01-23T16:28:29.471Z,102459.81
2023-01-23T16:30:56.567Z,102468.06
2023-01-23T16:33:23.696Z,102459.63
2023-01-23T16:35:51.523Z,102461.47
2023-01-23T16:38:28.950Z,102461.94
2023-01-23T16:40:59.575Z,102461.94
2023-01-23T16:43:27.442Z,102466.88
2023-01-23T16:45:56.559Z,102470.72
2023-01-23T16:48:28.927Z,102469.19
2023-01-23T16:51:24.951Z,102478.22
2023-01-23T16:54:03.816Z,102474.47
2023-01-23T17:00:54.828Z,102480.63
2023-01-23T17:03:27.612Z,102491.56
2023-01-23T17:05:54.779Z,102482.66
2023-01-23T17:08:24.759Z,102490.44
2023-01-23T17:11:02.149Z,102485.53
2023-01-23T17:13:33.633Z,102491.78
2023-01-23T17:16:02.868Z,102485.50
2023-01-23T17:18:36.533Z,102495.31
2023-01-23T17:21:05.970Z,102493.78
2023-01-23T17:23:33.210Z,102504.34
2023-01-23T17:26:01.529Z,102508.66
2023-01-23T17:28:29.456Z,102501.88
2023-01-23T17:31:00.564Z,102500.03
2023-01-23T17:33:32.023Z,102504.28
2023-01-23T17:36:00.882Z,102497.41
2023-01-23T17:38:34.519Z,102503.06
2023-01-23T17:41:02.296Z,102498.50
2023-01-23T17:43:29.547Z,102489.81
2023-01-23T17:45:56.739Z,102486.75
2023-01-23T17:48:31.619Z,102492.09
2023-01-23T17:50:59.368Z,102497.06
2023-01-23T17:53:28.007Z,102488.31
2023-01-23T17:55:55.210Z,102493.53
2023-01-23T17:58:22.316Z,102494.63
2023-01-23T18:00:53.441Z,102490.59
2023-01-23T18:03:23.127Z,102494.41
2023-01-23T18:05:50.649Z,102499.81
2023-01-23T18:08:21.663Z,102498.28
2023-01-23T18:10:53.024Z,102495.34
2023-01-23T18:13:49.609Z,102499.19
2023-01-23T18:16:32.558Z,102485.19
2023-01-23T18:19:07.468Z,102489.94
2023-01-23T18:21:50.849Z,102500.69
2023-01-23T18:24:31.208Z,102494.09
2023-01-23T18:27:23.531Z,102498.47
2023-01-23T18:30:26.763Z,102492.31
2023-01-23T18:33:14.882Z,102499.09
2023-01-23T18:40:25.200Z,102500.59
2023-01-23T18:43:24.761Z,102501.03
2023-01-23T18:45:53.947Z,102494.31
2023-01-23T18:48:25.914Z,102495.38
2023-01-23T18:51:14.155Z,102491.06
2023-01-23T18:53:52.646Z,102493.19
2023-01-23T18:56:38.512Z,102494.75
2023-01-23T18:59:49.514Z,102492.91
2023-01-23T19:02:51.965Z,102487.78
2023-01-23T19:05:23.754Z,102492.28
2023-01-23T19:07:51.426Z,102496.13
2023-01-23T19:10:25.814Z,102498.22
2023-01-23T19:13:10.851Z,102507.31
2023-01-23T19:16:17.941Z,102500.03
2023-01-23T19:19:14.544Z,102509.63
2023-01-23T19:21:44.151Z,102504.72
2023-01-23T19:24:11.364Z,102511.47
2023-01-23T19:26:41.170Z,102512.19
2023-01-23T19:29:26.084Z,102502.38
2023-01-23T19:32:08.921Z,102503.25
2023-01-23T19:34:36.025Z,102506.13
2023-01-23T19:37:04.190Z,102506.47
2023-01-23T19:39:31.529Z,102508.16
2023-01-23T19:41:59.346Z,102514.72
2023-01-23T19:44:29.080Z,102513.81
2023-01-23T19:46:56.231Z,102505.03
2023-01-23T19:49:23.319Z,102517.91
2023-01-23T19:51:50.322Z,102513.19
2023-01-23T19:54:17.427Z,102517.97
2023-01-23T19:56:44.499Z,102510.56
2023-01-23T19:59:11.769Z,102517.16
2023-01-23T20:01:48.538Z,102522.56
2023-01-23T20:04:20.858Z,102523.00
2023-01-23T20:06:50.498Z,102523.75
2023-01-23T20:09:18.344Z,102529.56
2023-01-23T20:11:46.638Z,102534.47
2023-01-23T20:14:13.789Z,102537.88
2023-01-23T20:16:43.293Z,102535.88
2023-01-23T20:19:19.093Z,102516.69
2023-01-23T20:21:48.341Z,102521.28
2023-01-23T20:24:16.036Z,102523.75
2023-01-23T20:26:43.605Z,102520.50
2023-01-23T20:29:11.997Z,102522.19
2023-01-23T20:31:39.093Z,102524.19
2023-01-23T20:34:07.239Z,102526.00
2023-01-23T20:36:34.257Z,102514.06
2023-01-23T20:39:01.417Z,102520.31
2023-01-23T20:41:28.514Z,102520.00
2023-01-23T20:43:55.591Z,102525.84
2023-01-23T20:46:22.694Z,102522.81
2023-01-23T20:48:49.772Z,102527.47
2023-01-23T20:51:17.369Z,102524.41
2023-01-23T20:53:45.543Z,102528.53
2023-01-23T20:56:16.375Z,102516.19
2023-01-23T20:59:07.654Z,102527.47
2023-01-23T21:01:57.138Z,102530.06
2023-01-23T21:04:29.079Z,102529.75
2023-01-23T21:06:56.737Z,102526.00
2023-01-23T21:09:24.301Z,102526.84
2023-01-23T21:11:53.088Z,102528.50
2023-01-23T21:14:21.977Z,102529.81
2023-01-23T21:16:49.290Z,102519.56
2023-01-23T21:19:16.906Z,102527.53
2023-01-23T21:21:44.040Z,102528.75
2023-01-23T21:24:11.477Z,102522.75
2023-01-23T21:26:39.162Z,102526.16
2023-01-23T21:29:07.841Z,102541.19
2023-01-23T21:31:39.288Z,102530.41
2023-01-23T21:34:12.904Z,102534.72
2023-01-23T21:36:42.599Z,102528.69
2023-01-23T21:39:13.913Z,102534.09
2023-01-23T21:41:41.005Z,102534.09
2023-01-23T21:44:10.761Z,102534.44
2023-01-23T21:46:38.155Z,102529.56
2023-01-23T21:49:05.322Z,102531.22
2023-01-23T21:51:32.605Z,102531.13
2023-01-23T21:53:59.705Z,102536.63
2023-01-23T21:56:26.732Z,102530.78
2023-01-23T21:58:54.017Z,102521.41
2023-01-23T22:01:35.610Z,102526.06
2023-01-23T22:04:06.760Z,102531.72
2023-01-23T22:06:35.789Z,102523.31
2023-01-23T22:09:04.261Z,102528.50
2023-01-23T22:11:31.477Z,102524.66
2023-01-23T22:13:58.866Z,102528.06
2023-01-23T22:16:46.322Z,102527.50
2023-01-23T22:19:15.734Z,102523.16
2023-01-23T22:21:43.866Z,102537.75
2023-01-23T22:24:11.148Z,102524.88
2023-01-23T22:26:38.354Z,102530.25
2023-01-23T22:29:05.446Z,102533.00
2023-01-23T22:31:32.572Z,102535.75
2023-01-23T22:33:59.798Z,102537.63
2023-01-23T22:36:26.966Z,102532.53
2023-01-23T22:38:55.476Z,102531.03
2023-01-23T22:41:23.191Z,102536.06
2023-01-23T22:43:59.340Z,102543.47
2023-01-23T22:46:28.472Z,102539.47
2023-01-23T22:48:55.606Z,102540.69
2023-01-23T22:51:25.940Z,102533.00
2023-01-23T22:53:54.776Z,102551.88
2023-01-23T22:56:22.673Z,102544.50
2023-01-23T22:58:51.861Z,102548.34
2023-01-23T23:01:20.001Z,102544.19
2023-01-23T23:03:47.225Z,102541.75
2023-01-23T23:06:16.725Z,102549.72
2023-01-23T23:08:47.679Z,102554.78
2023-01-23T23:11:27.444Z,102548.50
2023-01-23T23:13:56.523Z,102546.34
2023-01-23T23:16:31.608Z,102552.50
2023-01-23T23:19:03.115Z,102542.06
2023-01-23T23:21:35.648Z,102550.03
2023-01-23T23:24:09.386Z,102553.25
2023-01-23T23:26:36.563Z,102547.84
2023-01-23T23:29:04.890Z,102550.00
2023-01-23T23:31:32.734Z,102545.13
2023-01-23T23:34:00.306Z,102545.44
2023-01-23T23:36:27.919Z,102537.75
2023-01-23T23:38:55.083Z,102539.09
2023-01-23T23:41:22.268Z,102537.13
2023-01-23T23:43:49.279Z,102540.69
2023-01-23T23:46:17.699Z,102545.88
2023-01-23T23:48:46.266Z,102544.66
2023-01-23T23:51:16.819Z,102539.72
2023-01-23T23:53:44.161Z,102539.72
2023-01-23T23:56:23.311Z,102540.94
2023-01-23T23:58:51.146Z,102543.00
